Time;durP1;ratioP1;P1;durP2;ratioP2;P2;SDS_P1;SDS_P2;PMS_P1;PMS_P2;Temp;Humidity;BMP_temperature;BMP_pressure;BME280_temperature;BME280_humidity;BME280_pressure;Samples;Min_cycle;Max_cycle;Signal;HPM_P1;HPM_P2
2022/08/17 00:00:49;;;;;;;5.53;4.53;;;;;;;20.76;58.60;97645.94;5054420;28;20077;-86
2022/08/17 00:03:26;;;;;;;3.70;3.40;;;;;;;20.88;57.67;97643.72;5054096;28;20052;-86
2022/08/17 00:05:59;;;;;;;4.28;3.88;;;;;;;20.92;57.29;97647.41;5053360;28;20659;-85
2022/08/17 00:08:33;;;;;;;4.30;3.90;;;;;;;20.81;57.58;97646.72;5054998;28;20064;-85
2022/08/17 00:11:05;;;;;;;4.78;4.25;;;;;;;20.81;58.22;97652.03;5055350;28;20451;-85
2022/08/17 00:13:39;;;;;;;4.70;4.30;;;;;;;20.81;58.61;97645.88;5055619;28;20091;-86
2022/08/17 00:16:12;;;;;;;5.10;4.70;;;;;;;20.73;58.09;97651.81;5055384;28;20067;-85
2022/08/17 00:18:41;;;;;;;4.95;4.55;;;;;;;20.63;58.23;97643.88;5054115;28;20136;-85
2022/08/17 00:21:28;;;;;;;5.18;4.75;;;;;;;20.48;58.77;97642.88;5053406;28;20139;-85
2022/08/17 00:24:16;;;;;;;5.43;4.82;;;;;;;20.32;59.14;97644.00;5054464;28;20045;-85
2022/08/17 00:26:44;;;;;;;4.63;4.05;;;;;;;20.40;59.41;97640.78;5041961;28;20041;-86
2022/08/17 00:29:11;;;;;;;4.43;4.13;;;;;;;20.44;59.16;97630.34;5052755;28;20099;-85
2022/08/17 00:31:45;;;;;;;5.60;5.05;;;;;;;20.37;58.70;97622.66;5068728;28;20124;-85
2022/08/17 00:34:12;;;;;;;6.03;5.43;;;;;;;20.17;59.05;97642.19;5053310;28;20045;-85
2022/08/17 00:36:39;;;;;;;4.90;4.50;;;;;;;20.13;59.40;97635.03;5054423;28;20447;-86
2022/08/17 00:39:06;;;;;;;5.13;4.47;;;;;;;20.18;59.39;97625.16;5052175;28;20891;-85
2022/08/17 00:41:34;;;;;;;4.68;4.32;;;;;;;20.19;59.23;97637.41;5054218;28;20469;-85
2022/08/17 00:44:04;;;;;;;4.93;4.25;;;;;;;20.09;59.50;97639.28;5053795;28;20045;-85
2022/08/17 00:46:39;;;;;;;4.60;4.20;;;;;;;20.17;59.70;97636.88;5053178;28;20059;-85
2022/08/17 00:49:09;;;;;;;4.38;3.97;;;;;;;20.12;60.39;97638.75;5053158;28;20103;-85
2022/08/17 00:51:59;;;;;;;5.13;4.73;;;;;;;19.97;60.44;97632.44;5052971;28;20102;-85
2022/08/17 00:54:36;;;;;;;4.82;4.43;;;;;;;20.03;61.19;97636.66;5052889;28;20084;-85
2022/08/17 00:57:15;;;;;;;5.15;4.75;;;;;;;20.10;61.29;97614.28;5053049;28;20055;-85
2022/08/17 00:59:49;;;;;;;4.60;4.20;;;;;;;20.25;60.88;97624.84;5053322;28;20037;-86
2022/08/17 01:02:36;;;;;;;4.90;4.50;;;;;;;20.37;60.18;97630.66;5064920;28;20053;-85
2022/08/17 01:05:16;;;;;;;5.07;4.60;;;;;;;20.29;59.99;97623.25;5055410;28;20041;-85
2022/08/17 01:07:49;;;;;;;4.40;4.00;;;;;;;20.38;59.85;97629.59;5048762;28;20069;-85
2022/08/17 01:10:21;;;;;;;4.65;4.25;;;;;;;20.25;59.73;97612.34;5032692;28;20052;-85
2022/08/17 01:13:09;;;;;;;5.32;4.80;;;;;;;20.25;60.04;97616.88;5034004;28;20056;-85
2022/08/17 01:15:47;;;;;;;4.50;4.10;;;;;;;20.19;60.62;97624.09;5049266;28;20043;-85
2022/08/17 01:18:15;;;;;;;5.15;4.75;;;;;;;20.25;60.81;97641.63;5033793;28;20397;-86
2022/08/17 01:20:53;;;;;;;5.20;4.80;;;;;;;20.22;61.25;97633.41;5017105;28;20092;-85
2022/08/17 01:23:24;;;;;;;5.20;4.70;;;;;;;20.29;61.10;97639.22;5033228;28;20050;-85
2022/08/17 01:25:54;;;;;;;;;;;;;;;20.32;61.12;97633.34;5034472;28;20041;-85
2022/08/17 01:28:24;;;;;;;4.60;4.20;;;;;;;20.35;61.02;97632.81;5032594;28;19921;-85
2022/08/17 01:31:11;;;;;;;5.15;4.68;;;;;;;20.30;60.23;97632.84;5032622;28;20791;-85
2022/08/17 01:33:38;;;;;;;5.40;4.93;;;;;;;20.10;60.54;97609.75;5034566;28;20520;-85
2022/08/17 01:36:07;;;;;;;6.05;5.45;;;;;;;20.02;60.96;97629.72;5034543;28;20060;-85
2022/08/17 01:38:37;;;;;;;5.10;4.65;;;;;;;19.90;61.55;97629.25;5034032;28;20087;-85
2022/08/17 01:41:15;;;;;;;6.13;5.53;;;;;;;19.68;61.11;97615.47;5034089;28;20045;-86
2022/08/17 01:44:02;;;;;;;4.70;4.30;;;;;;;19.78;62.26;97618.91;5033242;28;20037;-85
2022/08/17 01:46:34;;;;;;;5.10;4.60;;;;;;;19.95;62.16;97623.09;5032130;28;20045;-85
2022/08/17 01:49:07;;;;;;;5.75;5.18;;;;;;;19.91;60.65;97633.53;5033473;28;20120;-85
2022/08/17 01:51:34;;;;;;;6.05;5.50;;;;;;;19.77;60.83;97629.81;5033053;28;20441;-85
2022/08/17 01:54:23;;;;;;;6.50;5.90;;;;;;;19.46;61.75;97637.81;5033124;28;20063;-85
2022/08/17 01:57:08;;;;;;;7.00;6.00;;;;;;;19.08;62.58;97631.19;5033622;28;20183;-86
2022/08/17 01:59:54;;;;;;;6.15;5.55;;;;;;;19.11;63.48;97629.84;5059841;28;20118;-86
2022/08/17 02:02:40;;;;;;;6.35;5.85;;;;;;;19.02;63.81;97637.56;5052064;28;20156;-85
2022/08/17 02:05:08;;;;;;;7.05;5.97;;;;;;;18.76;64.51;97612.81;5033858;28;20076;-86
2022/08/17 02:07:35;;;;;;;6.35;5.72;;;;;;;18.76;64.71;97612.81;5032349;28;20123;-86
2022/08/17 02:10:22;;;;;;;5.93;5.43;;;;;;;18.82;65.02;97606.44;5017919;28;20456;-86
2022/08/17 02:12:49;;;;;;;5.80;5.30;;;;;;;18.99;65.04;97622.94;5032404;28;20099;-85
2022/08/17 02:15:16;;;;;;;6.20;5.60;;;;;;;19.05;64.36;97620.28;5032258;28;20103;-85
2022/08/17 02:17:43;;;;;;;6.13;5.53;;;;;;;18.96;64.50;97610.19;5033134;28;20049;-85
2022/08/17 02:20:09;;;;;;;7.15;5.40;;;;;;;19.04;65.22;97608.06;5031613;28;20037;-84
2022/08/17 02:22:42;;;;;;;5.63;4.63;;;;;;;19.12;64.71;97607.53;5032458;28;20404;-85
2022/08/17 02:25:15;;;;;;;6.22;5.68;;;;;;;19.22;64.25;97612.84;5033545;28;20045;-85
2022/08/17 02:27:41;;;;;;;5.95;5.38;;;;;;;19.28;64.33;97614.44;5033104;28;20075;-85
2022/08/17 02:30:13;;;;;;;5.32;4.82;;;;;;;19.33;63.85;97610.97;5033023;28;20042;-85
2022/08/17 02:33:00;;;;;;;6.10;5.60;;;;;;;19.30;63.25;97604.31;5031810;28;20076;-85
2022/08/17 02:35:31;;;;;;;6.07;5.47;;;;;;;19.30;62.74;97596.34;5033556;28;20045;-85
2022/08/17 02:38:00;;;;;;;7.75;5.90;;;;;;;19.09;63.75;97605.41;5031939;28;20100;-85
2022/08/17 02:40:27;;;;;;;6.10;5.22;;;;;;;19.08;63.84;97614.47;5031507;28;20390;-85
2022/08/17 02:43:04;;;;;;;6.50;5.80;;;;;;;18.82;64.43;97601.13;5031220;28;20120;-85
2022/08/17 02:45:30;;;;;;;6.75;6.03;;;;;;;18.58;64.56;97600.00;5032534;28;20048;-85
2022/08/17 02:47:57;;;;;;;6.70;6.10;;;;;;;18.41;65.47;97590.44;5032687;28;20393;-86
2022/08/17 02:50:25;;;;;;;6.88;6.28;;;;;;;18.34;66.14;97594.38;5034124;28;20558;-85
2022/08/17 02:52:53;;;;;;;6.50;6.00;;;;;;;18.41;65.93;97589.63;5037388;28;20503;-87
2022/08/17 02:55:33;;;;;;;7.00;6.40;;;;;;;18.39;65.72;97584.56;5031401;28;20493;-86
2022/08/17 02:58:00;;;;;;;5.50;5.00;;;;;;;18.48;65.68;97584.06;5036352;28;20091;-86
2022/08/17 03:00:35;;;;;;;7.45;5.97;;;;;;;18.42;65.62;97580.63;5031894;28;20037;-85
2022/08/17 03:03:04;;;;;;;6.65;5.93;;;;;;;18.45;66.29;97580.88;5038167;28;20049;-85
2022/08/17 03:05:35;;;;;;;7.03;6.33;;;;;;;18.32;66.32;97591.19;5038768;28;20052;-85
2022/08/17 03:08:06;;;;;;;7.13;6.53;;;;;;;18.13;66.70;97578.41;5038610;28;20045;-86
2022/08/17 03:10:38;;;;;;;6.90;6.10;;;;;;;18.09;67.28;97576.53;5050504;28;20123;-85
2022/08/17 03:13:05;;;;;;;6.90;6.15;;;;;;;18.04;66.71;97589.78;5041705;28;20053;-85
2022/08/17 03:15:33;;;;;;;7.20;6.50;;;;;;;18.03;66.88;97577.56;5037741;28;20049;-85
2022/08/17 03:18:02;;;;;;;6.40;5.80;;;;;;;18.12;67.57;97574.16;5022173;28;20384;-85
2022/08/17 03:20:32;;;;;;;5.68;5.20;;;;;;;18.37;67.21;97584.03;5039805;28;20527;-85
2022/08/17 03:22:59;;;;;;;5.47;4.97;;;;;;;18.41;66.23;97584.31;5038383;28;20045;-85
2022/08/17 03:25:37;;;;;;;6.23;5.73;;;;;;;18.44;66.20;97589.09;5038112;28;20485;-85
2022/08/17 03:28:05;;;;;;;7.05;6.45;;;;;;;18.22;65.94;97583.19;5039709;28;20100;-85
2022/08/17 03:30:33;;;;;;;5.53;5.13;;;;;;;18.23;66.72;97579.47;5039419;28;20037;-85
2022/08/17 03:33:03;;;;;;;5.72;5.32;;;;;;;18.36;66.81;97576.34;5038058;28;20037;-85
2022/08/17 03:35:33;;;;;;;5.25;4.57;;;;;;;18.51;66.44;97592.31;5038503;28;20045;-85
2022/08/17 03:38:00;;;;;;;6.17;5.67;;;;;;;18.44;65.47;97584.59;5039158;28;20045;-85
2022/08/17 03:40:29;;;;;;;5.90;5.35;;;;;;;18.15;66.08;97586.09;5021741;28;20054;-85
2022/08/17 03:43:18;;;;;;;6.65;6.03;;;;;;;18.22;66.43;97591.16;5024274;28;20046;-85
2022/08/17 03:57:26;;;;;;;5.93;5.43;;;;;;;17.86;67.89;97588.38;5038985;28;20037;-85
2022/08/17 03:59:54;;;;;;;5.30;4.80;;;;;;;17.85;67.78;97584.91;5037856;28;20544;-85
2022/08/17 04:02:28;;;;;;;7.47;6.25;;;;;;;17.95;67.41;97589.47;5037888;28;20052;-85
2022/08/17 04:04:56;;;;;;;6.47;5.93;;;;;;;17.95;67.25;97586.03;5039079;28;20049;-86
2022/08/17 04:07:28;;;;;;;6.82;6.13;;;;;;;17.79;67.23;97583.28;5052251;28;20090;-85
2022/08/17 04:09:56;;;;;;;6.97;6.28;;;;;;;17.80;68.01;97595.50;5057461;28;20099;-85
2022/08/17 04:12:30;;;;;;;5.72;5.22;;;;;;;17.85;68.13;97597.38;5075970;28;20481;-85
2022/08/17 04:14:58;;;;;;;5.97;5.47;;;;;;;18.01;68.12;97590.31;5054053;28;20045;-85
2022/08/17 04:17:28;;;;;;;6.32;5.70;;;;;;;18.15;68.47;97604.69;5054404;28;20041;-85
2022/08/17 04:19:55;;;;;;;6.88;6.18;;;;;;;18.29;68.17;97616.41;5055780;28;20044;-85
2022/08/17 04:22:23;;;;;;;6.45;5.85;;;;;;;18.29;67.86;97618.25;5055712;28;20044;-85
2022/08/17 04:25:15;;;;;;;6.80;6.20;;;;;;;18.42;67.53;97626.53;5055803;28;20497;-85
2022/08/17 04:27:41;;;;;;;5.40;4.90;;;;;;;18.45;66.78;97618.03;5055497;28;20040;-85
2022/08/17 04:30:09;;;;;;;5.85;5.25;;;;;;;18.50;67.16;97625.22;5070731;28;20049;-85
2022/08/17 04:33:01;;;;;;;6.22;5.68;;;;;;;18.54;66.77;97633.47;5055398;28;20041;-85
2022/08/17 04:35:41;;;;;;;6.38;5.80;;;;;;;18.44;67.02;97643.00;5055197;28;20668;-85
2022/08/17 04:38:11;;;;;;;7.53;6.25;;;;;;;18.43;66.74;97641.41;5054148;28;20451;-85
2022/08/17 04:43:30;;;;;;;6.30;5.53;;;;;;;18.49;66.20;97628.16;5052755;28;20049;-85
2022/08/17 04:46:04;;;;;;;6.28;5.68;;;;;;;18.34;66.47;97627.03;5054865;28;20049;-85
2022/08/17 04:48:41;;;;;;;6.63;6.03;;;;;;;18.35;65.26;97638.44;5054811;28;20068;-85
2022/08/17 04:51:20;;;;;;;5.63;5.13;;;;;;;18.29;66.38;97635.00;5054741;28;20036;-85
2022/08/17 04:53:51;;;;;;;7.28;6.18;;;;;;;18.21;65.76;97627.53;5053073;28;20087;-85
2022/08/17 04:56:22;;;;;;;6.25;5.75;;;;;;;18.23;67.80;97628.06;5053705;28;20087;-85
2022/08/17 04:58:59;;;;;;;6.35;5.85;;;;;;;18.37;68.17;97631.84;5055049;28;20091;-85
2022/08/17 05:01:30;;;;;;;6.40;5.75;;;;;;;18.45;68.39;97635.84;5055020;28;20473;-85
2022/08/17 05:04:04;;;;;;;6.50;5.90;;;;;;;18.59;68.04;97639.59;5053058;28;20045;-85
2022/08/17 05:06:52;;;;;;;6.47;5.85;;;;;;;18.67;67.89;97643.63;5066683;28;20140;-85
2022/08/17 05:09:20;;;;;;;6.70;6.10;;;;;;;18.64;67.55;97641.44;5034814;28;20100;-85
2022/08/17 05:11:50;;;;;;;7.72;6.75;;;;;;;18.68;67.37;97645.22;5034078;28;20085;-85
2022/08/17 05:14:17;;;;;;;6.57;5.95;;;;;;;18.72;67.55;97638.34;5033566;28;20076;-85
2022/08/17 05:16:47;;;;;;;6.68;6.03;;;;;;;18.75;66.61;97650.28;5034394;28;20405;-85
2022/08/17 05:19:13;;;;;;;8.13;5.90;;;;;;;18.67;67.77;97656.91;5034287;28;20087;-85
2022/08/17 05:21:40;;;;;;;6.68;6.03;;;;;;;18.61;67.89;97642.00;5039708;28;20041;-85
2022/08/17 05:24:07;;;;;;;6.38;5.72;;;;;;;18.76;68.20;97657.19;5068480;28;20499;-85
2022/08/17 05:26:53;;;;;;;6.72;6.13;;;;;;;18.78;67.81;97641.78;5052780;28;20130;-85
2022/08/17 05:29:20;;;;;;;6.13;5.07;;;;;;;18.86;67.87;97650.03;5069430;28;20116;-85
2022/08/17 05:32:11;;;;;;;6.50;5.90;;;;;;;18.97;67.29;97654.31;5053986;28;20045;-85
2022/08/17 05:34:59;;;;;;;7.10;6.40;;;;;;;18.99;67.31;97654.81;5053926;28;20148;-85
2022/08/17 05:37:26;;;;;;;6.35;5.75;;;;;;;19.08;67.47;97656.97;5054174;28;20074;-85
2022/08/17 05:39:53;;;;;;;6.53;5.93;;;;;;;19.10;67.26;97654.84;5054256;28;20534;-85
2022/08/17 05:42:20;;;;;;;6.30;5.70;;;;;;;19.22;66.69;97661.50;5052527;28;20056;-85
2022/08/17 05:44:47;;;;;;;6.10;5.60;;;;;;;19.28;66.63;97656.19;5052855;28;20045;-85
2022/08/17 05:47:13;;;;;;;6.53;5.93;;;;;;;19.30;66.55;97644.19;5053922;28;20186;-85
2022/08/17 05:49:40;;;;;;;7.43;5.18;;;;;;;19.41;65.82;97651.13;5052319;28;20070;-84
2022/08/17 05:52:12;;;;;;;7.07;5.43;;;;;;;19.52;66.32;97652.72;5053235;28;20061;-85
2022/08/17 05:55:05;;;;;;;6.25;5.32;;;;;;;19.48;64.91;97653.50;5053693;28;20049;-85
2022/08/17 05:57:50;;;;;;;7.03;6.32;;;;;;;19.42;65.82;97644.72;5052549;28;20107;-85
2022/08/17 06:00:30;;;;;;;6.60;4.95;;;;;;;19.58;65.63;97655.38;5069211;28;20047;-85
2022/08/17 06:03:10;;;;;;;7.47;6.00;;;;;;;19.59;65.70;97647.13;5053994;28;20033;-85
2022/08/17 06:05:58;;;;;;;6.25;5.65;;;;;;;19.79;66.58;97656.94;5053575;28;20040;-85
2022/08/17 06:08:55;;;;;;;6.68;6.03;;;;;;;19.97;66.17;97651.06;5053797;28;20041;-85
2022/08/17 06:11:44;;;;;;;6.57;6.07;;;;;;;20.19;65.71;97647.25;5033292;28;20042;-85
2022/08/17 06:14:19;;;;;;;7.20;6.10;;;;;;;20.36;65.14;97639.72;5046785;28;20054;-85
2022/08/17 06:16:57;;;;;;;6.40;5.47;;;;;;;20.50;64.66;97645.28;5032108;28;20552;-85
2022/08/17 06:19:46;;;;;;;5.82;4.38;;;;;;;20.61;64.71;97641.50;5031820;28;20045;-85
2022/08/17 06:22:18;;;;;;;6.50;5.85;;;;;;;20.78;63.75;97639.25;5032868;28;20060;-85
2022/08/17 06:25:17;;;;;;;7.50;6.05;;;;;;;20.84;63.86;97634.69;5034622;28;20489;-85
2022/08/17 06:27:58;;;;;;;6.10;5.40;;;;;;;20.84;63.88;97645.34;5047757;28;20045;-85
2022/08/17 06:30:33;;;;;;;6.03;5.43;;;;;;;20.82;62.58;97642.97;5032777;28;20103;-85
2022/08/17 06:33:34;;;;;;;5.53;5.03;;;;;;;20.96;61.50;97656.47;5032188;28;20119;-85
2022/08/17 06:36:29;;;;;;;6.07;5.47;;;;;;;21.15;62.75;97655.78;5042619;28;20053;-86
2022/08/17 06:39:08;;;;;;;5.30;4.80;;;;;;;21.41;61.85;97653.75;5031209;28;20037;-85
2022/08/17 06:41:56;;;;;;;5.90;5.40;;;;;;;21.59;58.36;97651.19;5050019;28;20040;-85
2022/08/17 06:44:45;;;;;;;6.03;5.20;;;;;;;21.73;60.54;97645.19;5041615;28;20037;-85
2022/08/17 06:47:28;;;;;;;5.78;5.28;;;;;;;21.95;58.94;97642.81;5032951;28;20394;-85
2022/08/17 06:50:17;;;;;;;6.63;5.78;;;;;;;22.07;57.65;97651.22;5042798;28;20041;-84
2022/08/17 06:53:23;;;;;;;6.20;5.53;;;;;;;21.94;56.69;97641.22;5035218;28;20480;-85
2022/08/17 06:56:07;;;;;;;7.47;6.70;;;;;;;21.98;56.76;97658.25;5050085;28;20060;-85
2022/08/17 06:58:38;;;;;;;5.55;5.15;;;;;;;22.01;59.47;97640.88;5046873;28;20045;-85
2022/08/17 07:01:16;;;;;;;5.50;5.10;;;;;;;22.26;56.51;97659.31;5048353;28;20044;-86
2022/08/17 07:03:53;;;;;;;6.10;5.60;;;;;;;22.35;55.58;97657.59;5051100;28;20497;-85
2022/08/17 07:06:36;;;;;;;7.78;6.90;;;;;;;22.32;55.05;97657.38;5050491;28;20120;-86
2022/08/17 07:09:16;;;;;;;5.70;5.20;;;;;;;22.54;55.22;97654.16;5047011;28;20116;-85
2022/08/17 07:12:01;;;;;;;5.68;5.22;;;;;;;22.67;55.80;97654.25;5030242;28;20034;-86
2022/08/17 07:14:44;;;;;;;7.18;6.25;;;;;;;22.67;53.21;97656.91;5013108;28;20390;-84
2022/08/17 07:17:17;;;;;;;4.95;4.55;;;;;;;22.92;56.07;97668.38;5044254;28;20052;-85
2022/08/17 07:19:47;;;;;;;4.75;4.35;;;;;;;23.16;57.03;97674.41;5045914;28;20072;-85
2022/08/17 07:22:32;;;;;;;5.55;5.00;;;;;;;23.34;54.70;97672.00;5033820;28;20041;-85
2022/08/17 07:25:20;;;;;;;7.70;5.43;;;;;;;23.42;53.84;97674.00;5043743;28;20045;-85
2022/08/17 07:27:52;;;;;;;5.38;4.88;;;;;;;23.47;53.44;97673.94;5030374;28;20045;-85
2022/08/17 07:30:24;;;;;;;4.35;3.95;;;;;;;23.67;53.95;97676.28;5046939;28;20037;-85
2022/08/17 07:32:58;;;;;;;5.22;4.80;;;;;;;23.90;52.69;97687.91;5049263;28;20095;-86
2022/08/17 07:35:28;;;;;;;4.20;3.90;;;;;;;24.06;51.97;97688.44;5050999;28;20484;-85
2022/08/17 07:38:17;;;;;;;4.47;4.18;;;;;;;24.30;52.96;97683.69;5049303;28;20124;-86
2022/08/17 07:41:00;;;;;;;4.22;3.92;;;;;;;24.51;50.45;97688.66;5037714;28;20412;-88
2022/08/17 07:43:30;;;;;;;4.38;4.03;;;;;;;24.68;49.48;97688.03;5030965;28;20529;-85
2022/08/17 07:49:02;;;;;;;4.30;4.00;;;;;;;24.90;48.63;97685.41;5033478;28;20088;-86
2022/08/17 07:51:54;;;;;;;3.78;3.47;;;;;;;25.04;47.93;97680.00;5032176;28;20393;-84
2022/08/17 07:54:39;;;;;;;3.92;3.63;;;;;;;25.22;46.75;97678.25;5046074;28;20067;-86
2022/08/17 07:57:12;;;;;;;3.85;3.55;;;;;;;25.44;45.99;97683.63;5034410;28;20041;-84
2022/08/17 08:00:02;;;;;;;3.10;2.90;;;;;;;25.53;45.68;97676.41;5035338;28;20045;-86
2022/08/17 08:02:37;;;;;;;4.40;3.33;;;;;;;25.84;46.79;97687.19;5063473;28;20417;-86
2022/08/17 08:05:18;;;;;;;3.70;3.40;;;;;;;25.97;45.32;97682.84;5033958;28;20037;-87
2022/08/17 08:08:31;;;;;;;3.47;3.17;;;;;;;26.15;44.34;97691.78;5043841;28;20707;-86
2022/08/17 08:11:14;;;;;;;3.50;3.20;;;;;;;26.32;44.05;97694.50;5034481;28;20060;-86
2022/08/17 08:13:44;;;;;;;3.63;3.35;;;;;;;26.45;42.39;97683.97;5048792;28;20049;-87
2022/08/17 08:16:19;;;;;;;3.28;2.97;;;;;;;26.65;46.63;97684.19;5045342;28;20084;-86
2022/08/17 08:18:51;;;;;;;3.40;3.20;;;;;;;26.84;43.12;97691.94;5040699;28;20103;-85
2022/08/17 08:21:40;;;;;;;3.13;2.85;;;;;;;27.00;44.27;97691.50;5039383;28;20073;-86
2022/08/17 08:24:18;;;;;;;3.00;2.70;;;;;;;27.20;42.33;97688.19;5037407;28;20499;-90
2022/08/17 08:27:15;;;;;;;2.80;2.60;;;;;;;27.32;43.70;97680.25;5052644;28;20045;-85
2022/08/17 08:30:09;;;;;;;3.45;3.15;;;;;;;27.35;41.66;97685.03;5050420;28;20095;-87
2022/08/17 08:33:07;;;;;;;3.53;3.28;;;;;;;27.54;42.20;97679.28;5044871;28;20099;-86
2022/08/17 08:36:02;;;;;;;3.15;2.83;;;;;;;27.65;42.26;97675.16;5052563;28;20091;-86
2022/08/17 08:39:23;;;;;;;3.55;3.35;;;;;;;27.67;39.87;97678.31;5039168;28;20559;-89
2022/08/17 08:41:58;;;;;;;3.78;3.47;;;;;;;27.79;40.44;97672.28;5048248;28;20056;-87
2022/08/17 08:44:57;;;;;;;3.65;3.20;;;;;;;27.89;39.94;97679.19;5049238;28;20382;-87
2022/08/17 08:48:13;;;;;;;4.18;3.40;;;;;;;28.07;40.78;97671.84;5033481;28;20071;-86
2022/08/17 08:51:31;;;;;;;4.28;3.65;;;;;;;28.22;38.94;97668.59;5051217;28;20446;-87
2022/08/17 08:54:30;;;;;;;3.72;3.45;;;;;;;28.35;39.35;97673.00;5053264;28;20103;-87
2022/08/17 08:57:27;;;;;;;4.15;3.75;;;;;;;28.35;39.10;97677.59;5052458;28;20045;-86
2022/08/17 09:00:22;;;;;;;4.40;3.90;;;;;;;28.41;39.13;97674.41;5063586;28;20042;-87
2022/08/17 09:03:22;;;;;;;3.70;3.42;;;;;;;28.61;40.27;97672.88;5033371;28;20091;-88
2022/08/17 09:06:33;;;;;;;3.65;3.45;;;;;;;28.68;39.53;97670.44;5046056;28;20135;-86
2022/08/17 09:09:21;;;;;;;3.70;3.40;;;;;;;28.78;37.60;97663.84;5053547;28;20041;-89
2022/08/17 09:12:28;;;;;;;3.28;3.00;;;;;;;28.93;39.54;97666.00;5051800;28;20051;-86
2022/08/17 09:15:16;;;;;;;3.40;3.10;;;;;;;28.98;37.86;97663.09;5048490;28;20054;-87
2022/08/17 09:18:15;;;;;;;3.15;2.85;;;;;;;29.00;36.71;97671.66;5036102;28;20049;-89
2022/08/17 09:21:16;;;;;;;3.42;3.13;;;;;;;29.05;37.67;97671.44;5032341;28;20497;-87
2022/08/17 09:24:10;;;;;;;3.00;2.80;;;;;;;29.18;38.92;97668.81;5032221;28;20397;-89
2022/08/17 09:26:52;;;;;;;3.83;3.53;;;;;;;29.31;37.57;97655.00;5039033;28;20042;-87
2022/08/17 09:29:25;;;;;;;3.50;3.20;;;;;;;29.38;38.04;97649.06;5034685;28;20041;-88
2022/08/17 09:32:02;;;;;;;4.25;3.30;;;;;;;29.50;36.47;97651.78;5051569;28;20041;-87
2022/08/17 09:34:42;;;;;;;3.47;3.17;;;;;;;29.44;35.66;97647.72;5031574;28;20562;-87
2022/08/17 09:38:03;;;;;;;3.83;3.45;;;;;;;29.55;37.80;97653.53;5047287;28;20088;-87
2022/08/17 09:40:46;;;;;;;3.30;3.10;;;;;;;29.51;35.16;97642.59;5040857;28;20041;-87
2022/08/17 09:43:38;;;;;;;3.50;3.20;;;;;;;29.64;34.78;97661.56;5034055;28;20041;-84
2022/08/17 09:46:17;;;;;;;3.17;2.97;;;;;;;29.78;34.85;97643.09;5035501;28;20049;-85
2022/08/17 09:48:56;;;;;;;3.00;2.80;;;;;;;29.88;34.21;97647.28;5046404;28;20090;-84
2022/08/17 09:51:50;;;;;;;4.32;2.83;;;;;;;29.93;33.93;97645.16;5047356;28;20045;-86
2022/08/17 09:54:40;;;;;;;3.72;3.33;;;;;;;29.85;34.26;97635.22;5066257;28;20048;-88
2022/08/17 09:57:46;;;;;;;5.18;3.20;;;;;;;29.91;34.26;97633.88;5033748;28;20052;-88
2022/08/17 10:00:25;;;;;;;4.25;2.83;;;;;;;30.07;33.67;97648.31;5035557;28;20102;-88
2022/08/17 10:03:33;;;;;;;3.00;2.80;;;;;;;30.25;34.84;97648.09;5070372;28;20049;-84
2022/08/17 10:06:19;;;;;;;3.03;2.50;;;;;;;30.47;33.09;97641.41;5033409;28;20057;-87
2022/08/17 10:08:53;;;;;;;3.65;3.35;;;;;;;30.49;32.14;97645.38;5031140;28;20053;-86
2022/08/17 10:14:45;;;;;;;2.95;2.75;;;;;;;30.71;33.25;97627.06;5037946;28;20324;-85
2022/08/17 10:18:09;;;;;;;2.47;2.28;;;;;;;30.93;31.80;97626.56;5052879;28;20475;-85
2022/08/17 10:26:11;;;;;;;3.60;2.97;;;;;;;31.06;31.66;97622.66;5032083;28;20041;-87
2022/08/17 10:26:43;;;;;;;2.50;2.30;;;;;;;31.07;30.78;97635.09;5046400;28;20496;-84
2022/08/17 10:29:54;;;;;;;2.60;2.40;;;;;;;31.03;32.74;97623.38;5036535;28;20106;-86
2022/08/17 10:32:58;;;;;;;3.08;2.88;;;;;;;31.07;32.76;97612.66;5035842;28;20987;-86
2022/08/17 10:35:45;;;;;;;3.25;3.00;;;;;;;31.24;29.50;97608.81;5032488;28;20526;-91
2022/08/17 10:38:45;;;;;;;2.70;2.50;;;;;;;31.34;31.19;97625.38;5032320;28;20056;-88
2022/08/17 10:41:41;;;;;;;3.17;2.70;;;;;;;31.44;31.98;97622.19;5031598;28;20049;-87
2022/08/17 10:44:34;;;;;;;2.90;2.70;;;;;;;31.28;28.59;97618.66;5032219;28;20045;-87
2022/08/17 10:47:16;;;;;;;3.17;2.97;;;;;;;31.26;30.93;97622.84;5050299;28;20394;-87
2022/08/17 10:49:52;;;;;;;2.50;2.30;;;;;;;31.36;29.70;97625.81;5066678;28;20345;-85
2022/08/17 10:52:18;;;;;;;2.50;2.30;;;;;;;31.55;29.65;97622.47;5050989;28;20048;-83
2022/08/17 10:55:05;;;;;;;2.50;2.35;;;;;;;31.59;29.47;97633.38;5051504;28;20820;-85
2022/08/17 10:57:46;;;;;;;2.45;2.25;;;;;;;31.73;30.28;97632.94;5039273;28;20485;-85
2022/08/17 11:00:38;;;;;;;2.03;1.92;;;;;;;31.78;30.08;97636.19;5014785;28;20576;-84
2022/08/17 11:03:20;;;;;;;2.20;2.10;;;;;;;31.78;30.11;97625.34;5049586;28;20037;-84
2022/08/17 11:06:31;;;;;;;2.88;2.67;;;;;;;31.80;30.42;97638.59;5067042;28;20052;-85
2022/08/17 11:09:07;;;;;;;2.47;2.38;;;;;;;31.68;28.01;97642.16;5049391;28;20052;-89
2022/08/17 11:12:06;;;;;;;2.90;2.33;;;;;;;31.63;27.27;97642.41;5052551;28;20052;-88
2022/08/17 11:14:51;;;;;;;2.58;2.38;;;;;;;31.77;25.71;97631.13;5052788;28;20041;-89
2022/08/17 11:18:00;;;;;;;2.63;2.42;;;;;;;32.00;26.72;97629.38;5034219;28;20072;-87
2022/08/17 11:20:55;;;;;;;2.28;2.08;;;;;;;32.22;26.71;97620.63;5050105;28;20409;-86
2022/08/17 11:23:51;;;;;;;2.60;2.40;;;;;;;32.38;26.08;97625.22;5019896;28;20076;-85
2022/08/17 11:26:28;;;;;;;2.85;2.65;;;;;;;32.31;26.10;97625.06;5055510;28;20567;-86
2022/08/17 11:29:08;;;;;;;3.83;2.53;;;;;;;32.33;25.36;97631.72;5054759;28;20044;-87
2022/08/17 11:31:43;;;;;;;2.45;2.22;;;;;;;32.13;24.95;97627.34;5042144;28;20401;-84
2022/08/17 11:34:21;;;;;;;2.50;2.30;;;;;;;32.07;26.16;97626.84;5050334;28;20137;-85
2022/08/17 11:37:26;;;;;;;2.25;2.05;;;;;;;32.23;26.31;97641.19;5045382;28;20050;-86
2022/08/17 11:40:24;;;;;;;2.60;2.40;;;;;;;32.42;26.67;97636.97;5046657;28;20076;-85
2022/08/17 11:43:22;;;;;;;2.50;2.30;;;;;;;32.61;25.84;97642.41;5036875;28;20055;-87
2022/08/17 11:53:38;;;;;;;3.00;2.70;;;;;;;32.29;25.03;97649.06;5072995;28;20083;-86
2022/08/17 11:56:08;;;;;;;3.05;2.70;;;;;;;32.30;25.91;97645.19;5035823;28;20049;-89
2022/08/17 11:58:41;;;;;;;3.08;2.88;;;;;;;32.22;26.84;97636.91;5050669;28;20049;-88
2022/08/17 12:01:10;;;;;;;3.10;2.90;;;;;;;32.40;27.28;97642.75;5035616;28;20042;-88
2022/08/17 12:03:45;;;;;;;2.90;2.70;;;;;;;32.20;26.50;97631.00;5040771;28;20049;-86
2022/08/17 12:06:43;;;;;;;2.58;2.38;;;;;;;32.12;27.00;97644.78;5053933;28;20079;-84
2022/08/17 12:09:23;;;;;;;2.63;2.42;;;;;;;32.05;28.88;97644.63;5055547;28;20092;-86
2022/08/17 12:12:15;;;;;;;2.42;2.22;;;;;;;32.21;27.60;97643.47;5038296;28;20045;-85
2022/08/17 12:14:56;;;;;;;2.90;2.70;;;;;;;32.40;25.92;97628.41;5055536;28;20049;-86
2022/08/17 12:17:39;;;;;;;3.38;3.05;;;;;;;32.64;27.21;97630.88;5066786;28;20049;-89
2022/08/17 12:20:36;;;;;;;3.17;2.72;;;;;;;32.87;26.20;97622.00;5017238;28;20049;-84
2022/08/17 12:23:35;;;;;;;2.95;2.33;;;;;;;33.11;27.24;97613.59;5033253;28;20037;-86
2022/08/17 12:26:14;;;;;;;3.13;2.92;;;;;;;33.23;25.51;97616.16;5034585;28;20045;-86
2022/08/17 12:28:47;;;;;;;2.58;2.38;;;;;;;33.29;24.87;97614.72;5038077;28;20231;-89
2022/08/17 12:31:27;;;;;;;3.70;2.65;;;;;;;33.44;25.86;97604.13;5034925;28;20045;-86
2022/08/17 12:33:55;;;;;;;2.75;2.55;;;;;;;33.37;24.10;97606.69;5033647;28;20034;-87
2022/08/17 12:36:27;;;;;;;2.70;2.50;;;;;;;33.18;24.58;97619.16;5035267;28;20049;-90
2022/08/17 12:39:06;;;;;;;2.70;2.50;;;;;;;32.94;25.15;97616.75;5070100;28;20503;-87
2022/08/17 12:41:49;;;;;;;3.30;3.03;;;;;;;32.68;25.59;97629.00;5053522;28;20053;-90
2022/08/17 12:44:17;;;;;;;3.25;2.50;;;;;;;32.76;25.43;97614.44;5040567;28;20469;-84
2022/08/17 12:47:17;;;;;;;2.80;2.60;;;;;;;32.80;25.49;97613.72;5032856;28;20100;-88
2022/08/17 12:50:02;;;;;;;3.80;3.20;;;;;;;33.10;24.30;97612.00;5046778;28;20053;-85
2022/08/17 12:52:31;;;;;;;4.70;3.15;;;;;;;32.96;23.30;97612.53;5030798;28;20076;-87
2022/08/17 12:55:21;;;;;;;2.85;2.50;;;;;;;33.23;23.13;97610.72;5041843;28;20067;-86
2022/08/17 12:57:58;;;;;;;2.60;2.40;;;;;;;33.51;24.56;97606.97;5034832;28;20041;-88
2022/08/17 13:00:33;;;;;;;2.80;1.92;;;;;;;33.80;23.96;97611.72;5034557;28;20041;-85
2022/08/17 13:03:25;;;;;;;1.58;1.48;;;;;;;34.33;26.20;97609.06;5046934;28;20052;-86
2022/08/17 13:05:51;;;;;;;2.00;1.90;;;;;;;34.53;24.56;97612.47;5037437;28;20489;-89